createdAt,value
2017-10-06T00:00:22.215Z,999.09
2017-10-06T00:01:22.203Z,999.11
2017-10-06T00:02:22.501Z,999.08
2017-10-06T00:03:43.192Z,999.10
2017-10-06T00:04:22.181Z,999.07
2017-10-06T00:05:22.182Z,999.09
2017-10-06T00:06:22.161Z,999.10
2017-10-06T00:07:22.490Z,999.13
2017-10-06T00:08:22.156Z,999.18
2017-10-06T00:09:22.152Z,999.10
2017-10-06T00:10:22.136Z,999.08
2017-10-06T00:11:22.133Z,999.09
2017-10-06T00:12:22.140Z,999.10
2017-10-06T00:13:22.110Z,999.11
2017-10-06T00:14:22.098Z,999.07
2017-10-06T00:15:22.088Z,999.09
2017-10-06T00:16:22.089Z,999.05
2017-10-06T00:17:22.522Z,999.05
2017-10-06T00:18:22.069Z,999.07
2017-10-06T00:19:22.061Z,999.11
2017-10-06T00:20:22.053Z,999.12
2017-10-06T00:21:22.038Z,999.09
2017-10-06T00:22:22.040Z,999.05
2017-10-06T00:23:22.317Z,999.03
2017-10-06T00:24:22.015Z,999.03
2017-10-06T00:25:22.008Z,999.04
2017-10-06T00:26:21.999Z,999.05
2017-10-06T00:27:21.985Z,999.03
2017-10-06T00:28:21.987Z,999.03
2017-10-06T00:29:21.994Z,999.03
2017-10-06T00:30:21.963Z,999.01
2017-10-06T00:31:21.953Z,998.97
2017-10-06T00:32:21.953Z,998.97
2017-10-06T00:33:21.942Z,998.97
2017-10-06T00:34:21.927Z,999.00
2017-10-06T00:35:22.271Z,999.02
2017-10-06T00:36:21.910Z,999.04
2017-10-06T00:37:21.903Z,999.01
2017-10-06T00:38:21.892Z,999.00
2017-10-06T00:39:21.882Z,999.00
2017-10-06T00:40:21.878Z,998.99
2017-10-06T00:41:21.895Z,998.98
2017-10-06T00:42:21.861Z,999.02
2017-10-06T00:43:21.857Z,998.97
2017-10-06T00:44:21.841Z,999.00
2017-10-06T00:45:21.836Z,999.02
2017-10-06T00:46:22.252Z,998.93
2017-10-06T00:47:21.814Z,998.98
2017-10-06T00:48:21.810Z,998.97
2017-10-06T00:49:21.804Z,999.03
2017-10-06T00:50:21.789Z,999.05
2017-10-06T00:51:21.780Z,999.02
2017-10-06T00:52:22.122Z,999.00
2017-10-06T00:53:21.765Z,998.99
2017-10-06T00:54:21.755Z,999.03
2017-10-06T00:55:21.744Z,998.95
2017-10-06T00:56:21.735Z,998.97
2017-10-06T00:57:21.738Z,999.01
2017-10-06T00:58:22.207Z,998.99
2017-10-06T00:59:21.709Z,998.96
2017-10-06T01:00:21.702Z,998.97
2017-10-06T01:01:21.699Z,998.96
2017-10-06T01:02:21.690Z,998.97
2017-10-06T01:03:21.680Z,998.98
2017-10-06T01:04:22.105Z,998.95
2017-10-06T01:05:21.662Z,998.96
2017-10-06T01:06:21.650Z,998.99
2017-10-06T01:07:21.639Z,999.01
2017-10-06T01:08:21.634Z,999.02
2017-10-06T01:09:21.622Z,999.05
2017-10-06T01:10:21.842Z,998.94
2017-10-06T01:11:21.607Z,999.00
2017-10-06T01:12:21.605Z,999.05
2017-10-06T01:13:21.589Z,999.01
2017-10-06T01:14:21.580Z,998.98
2017-10-06T01:15:21.576Z,998.97
2017-10-06T01:16:21.996Z,998.97
2017-10-06T01:17:21.554Z,998.99
2017-10-06T01:18:21.550Z,998.99
2017-10-06T01:19:21.534Z,998.93
2017-10-06T01:20:21.539Z,999.02
2017-10-06T01:21:21.521Z,998.99
2017-10-06T01:22:21.889Z,999.00
2017-10-06T01:23:21.500Z,999.02
2017-10-06T01:24:21.500Z,999.05
2017-10-06T01:25:21.484Z,998.99
2017-10-06T01:26:21.477Z,999.01
2017-10-06T01:27:21.468Z,999.04
2017-10-06T01:28:21.770Z,999.02
2017-10-06T01:29:21.451Z,998.99
2017-10-06T01:30:21.448Z,999.04
2017-10-06T01:31:21.433Z,999.02
2017-10-06T01:32:21.430Z,999.04
2017-10-06T01:33:21.419Z,999.04
2017-10-06T01:34:21.724Z,999.07
2017-10-06T01:35:21.404Z,999.01
2017-10-06T01:36:21.392Z,999.02
2017-10-06T01:37:21.381Z,999.00
2017-10-06T01:38:21.371Z,999.02
2017-10-06T01:39:21.366Z,999.00
2017-10-06T01:40:21.381Z,999.02
2017-10-06T01:41:21.701Z,998.98
2017-10-06T01:42:21.334Z,998.96
2017-10-06T01:43:21.330Z,999.01
2017-10-06T01:44:21.319Z,998.96
2017-10-06T01:45:21.316Z,998.93
2017-10-06T01:46:21.303Z,998.90
2017-10-06T01:47:21.650Z,998.96
2017-10-06T01:48:21.294Z,998.97
2017-10-06T01:49:21.278Z,998.99
2017-10-06T01:50:21.268Z,998.95
2017-10-06T01:51:21.261Z,998.95
2017-10-06T01:52:21.251Z,998.97
2017-10-06T01:53:21.630Z,998.94
2017-10-06T01:54:21.233Z,998.90
2017-10-06T01:55:21.229Z,998.91
2017-10-06T01:56:21.214Z,998.87
2017-10-06T01:57:21.210Z,998.91
2017-10-06T01:58:21.202Z,998.94
2017-10-06T01:59:21.406Z,998.90
2017-10-06T02:00:21.178Z,998.89
2017-10-06T02:01:21.178Z,998.85
2017-10-06T02:02:21.165Z,998.85
2017-10-06T02:03:21.157Z,998.85
2017-10-06T02:04:21.149Z,998.81
2017-10-06T02:05:21.356Z,998.83
2017-10-06T02:06:21.137Z,998.85
2017-10-06T02:07:21.121Z,998.87
2017-10-06T02:08:21.114Z,998.93
2017-10-06T02:09:21.104Z,998.80
2017-10-06T02:10:21.094Z,998.81
2017-10-06T02:11:21.468Z,998.82
2017-10-06T02:12:21.086Z,998.80
2017-10-06T02:13:21.068Z,998.83
2017-10-06T02:14:21.062Z,998.83
2017-10-06T02:15:21.051Z,998.81
2017-10-06T02:16:21.041Z,998.84
2017-10-06T02:17:21.327Z,998.83
2017-10-06T02:18:21.028Z,998.84
2017-10-06T02:19:21.015Z,998.84
2017-10-06T02:20:21.010Z,998.84
2017-10-06T02:21:20.997Z,998.83
2017-10-06T02:22:20.988Z,998.82
2017-10-06T02:23:21.284Z,998.80
2017-10-06T02:24:20.973Z,998.80
2017-10-06T02:25:20.968Z,998.78
2017-10-06T02:26:20.951Z,998.78
2017-10-06T02:27:20.953Z,998.73
2017-10-06T02:28:20.941Z,998.80
2017-10-06T02:29:21.246Z,998.79
2017-10-06T02:30:20.917Z,998.79
2017-10-06T02:31:20.911Z,998.73
2017-10-06T02:32:20.910Z,998.73
2017-10-06T02:33:20.897Z,998.71
2017-10-06T02:34:20.885Z,998.75
2017-10-06T02:35:21.314Z,998.79
2017-10-06T02:36:20.870Z,998.78
2017-10-06T02:37:20.861Z,998.82
2017-10-06T02:38:20.855Z,998.77
2017-10-06T02:39:20.842Z,998.76
2017-10-06T02:40:20.834Z,998.77
2017-10-06T02:41:21.178Z,998.75
2017-10-06T02:42:20.814Z,998.80
2017-10-06T02:43:20.807Z,998.78
2017-10-06T02:44:20.799Z,998.79
2017-10-06T02:45:20.791Z,998.80
2017-10-06T02:46:20.782Z,998.75
2017-10-06T02:47:21.084Z,998.75
2017-10-06T02:48:20.764Z,998.79
2017-10-06T02:49:20.756Z,998.81
2017-10-06T02:50:20.749Z,998.79
2017-10-06T02:51:20.747Z,998.74
2017-10-06T02:52:20.726Z,998.75
2017-10-06T02:53:21.065Z,998.78
2017-10-06T02:54:20.720Z,998.72
2017-10-06T02:55:20.699Z,998.74
2017-10-06T02:56:20.696Z,998.80
2017-10-06T02:57:20.690Z,998.79
2017-10-06T02:58:20.684Z,998.79
2017-10-06T02:59:20.693Z,998.74
2017-10-06T03:00:20.656Z,998.76
2017-10-06T03:01:20.650Z,998.70
2017-10-06T03:02:20.943Z,998.72
2017-10-06T03:03:20.638Z,998.70
2017-10-06T03:04:20.623Z,998.76
2017-10-06T03:05:20.619Z,998.74
2017-10-06T03:06:20.607Z,998.78
2017-10-06T03:07:20.596Z,998.76
2017-10-06T03:08:21.020Z,998.73
2017-10-06T03:09:20.578Z,998.76
2017-10-06T03:10:20.572Z,998.77
2017-10-06T03:11:20.559Z,998.72
2017-10-06T03:12:20.553Z,998.68
2017-10-06T03:13:20.544Z,998.73
2017-10-06T03:14:20.565Z,998.73
2017-10-06T03:15:20.526Z,998.71
2017-10-06T03:16:20.521Z,998.72
2017-10-06T03:17:20.525Z,998.74
2017-10-06T03:18:20.502Z,998.78
2017-10-06T03:19:20.500Z,998.74
2017-10-06T03:20:20.837Z,998.83
2017-10-06T03:21:20.479Z,998.78
2017-10-06T03:22:20.474Z,998.79
2017-10-06T03:23:20.459Z,998.85
2017-10-06T03:24:20.446Z,998.85
2017-10-06T03:25:20.447Z,998.84
2017-10-06T03:26:20.456Z,998.81
2017-10-06T03:27:20.721Z,998.83
2017-10-06T03:28:20.413Z,998.81
2017-10-06T03:29:20.404Z,998.79
2017-10-06T03:30:20.395Z,998.76
2017-10-06T03:31:20.390Z,998.79
2017-10-06T03:32:20.379Z,998.79
2017-10-06T03:33:20.734Z,998.80
2017-10-06T03:34:20.370Z,998.82
2017-10-06T03:35:20.362Z,998.81
2017-10-06T03:36:20.343Z,998.83
2017-10-06T03:37:20.339Z,998.83
2017-10-06T03:38:20.328Z,998.85
2017-10-06T03:39:20.755Z,998.80
2017-10-06T03:40:20.312Z,998.85
2017-10-06T03:41:20.302Z,998.86
2017-10-06T03:42:20.290Z,998.88
2017-10-06T03:43:20.283Z,998.86
2017-10-06T03:44:20.273Z,998.84
2017-10-06T03:45:20.291Z,998.86
2017-10-06T03:46:20.263Z,998.90
2017-10-06T03:47:20.250Z,998.93
2017-10-06T03:48:20.239Z,998.90
2017-10-06T03:49:20.616Z,998.96
2017-10-06T03:50:20.222Z,998.98
2017-10-06T03:51:20.212Z,999.03
2017-10-06T03:52:20.206Z,998.96
2017-10-06T03:53:20.193Z,999.01
2017-10-06T03:54:20.183Z,998.98
2017-10-06T03:55:20.606Z,998.96
2017-10-06T03:56:20.172Z,998.95
2017-10-06T03:57:20.157Z,998.95
2017-10-06T03:58:20.151Z,998.91
2017-10-06T03:59:20.138Z,998.95
2017-10-06T04:00:20.134Z,998.91
2017-10-06T04:01:20.472Z,998.91
2017-10-06T04:02:20.123Z,998.92
2017-10-06T04:03:20.107Z,998.92
2017-10-06T04:04:20.100Z,998.96
2017-10-06T04:05:20.087Z,998.94
2017-10-06T04:06:20.079Z,998.94
2017-10-06T04:07:20.403Z,998.92
2017-10-06T04:08:20.068Z,998.90
2017-10-06T04:09:20.052Z,998.92
2017-10-06T04:10:20.047Z,998.86
2017-10-06T04:11:20.038Z,998.84
2017-10-06T04:12:20.027Z,998.84
2017-10-06T04:13:20.241Z,998.84
2017-10-06T04:14:20.016Z,998.79
2017-10-06T04:15:20.000Z,998.80
2017-10-06T04:16:19.992Z,998.81
2017-10-06T04:17:19.985Z,998.77
2017-10-06T04:18:19.978Z,998.75
2017-10-06T04:19:20.358Z,998.75
2017-10-06T04:20:19.957Z,998.75
2017-10-06T04:21:19.949Z,998.72
2017-10-06T04:22:19.944Z,998.70
2017-10-06T04:23:19.935Z,998.69
2017-10-06T04:24:19.921Z,998.78
2017-10-06T04:25:20.277Z,998.74
2017-10-06T04:26:19.906Z,998.71
2017-10-06T04:27:19.897Z,998.72
2017-10-06T04:28:19.891Z,998.71
2017-10-06T04:29:19.878Z,998.70
2017-10-06T04:30:19.873Z,998.71
2017-10-06T04:31:19.888Z,998.69
2017-10-06T04:32:19.851Z,998.68
2017-10-06T04:33:19.844Z,998.70
2017-10-06T04:34:19.832Z,998.69
2017-10-06T04:35:19.828Z,998.70
2017-10-06T04:36:19.841Z,998.68
2017-10-06T04:37:19.807Z,998.70
2017-10-06T04:38:19.799Z,998.64
2017-10-06T04:39:19.789Z,998.68
2017-10-06T04:40:19.786Z,998.65
2017-10-06T04:41:20.174Z,998.65
2017-10-06T04:42:19.764Z,998.61
2017-10-06T04:43:19.755Z,998.67
2017-10-06T04:44:19.746Z,998.64
2017-10-06T04:45:19.741Z,998.63
2017-10-06T04:46:19.726Z,998.64
2017-10-06T04:47:20.107Z,998.70
2017-10-06T04:48:19.706Z,998.69
2017-10-06T04:49:19.704Z,998.68
2017-10-06T04:50:19.694Z,998.74
2017-10-06T04:51:19.684Z,998.72
2017-10-06T04:52:19.675Z,998.76
2017-10-06T04:53:19.876Z,998.82
2017-10-06T04:54:19.661Z,998.79
2017-10-06T04:55:19.665Z,998.87
2017-10-06T04:56:19.639Z,998.87
2017-10-06T04:57:19.630Z,998.90
2017-10-06T04:58:19.630Z,998.90
2017-10-06T04:59:19.994Z,998.90
2017-10-06T05:00:19.607Z,998.94
2017-10-06T05:01:19.604Z,998.96
2017-10-06T05:02:19.585Z,998.95
2017-10-06T05:03:19.580Z,998.91
2017-10-06T05:04:19.570Z,998.95
2017-10-06T05:05:19.904Z,998.97
2017-10-06T05:06:19.549Z,998.98
2017-10-06T05:07:19.548Z,998.94
2017-10-06T05:08:19.531Z,998.99
2017-10-06T05:09:19.525Z,998.99
2017-10-06T05:10:19.513Z,998.94
2017-10-06T05:11:19.806Z,998.98
2017-10-06T05:12:19.500Z,998.94
2017-10-06T05:13:19.491Z,998.91
2017-10-06T05:14:19.486Z,998.89
2017-10-06T05:15:19.471Z,998.92
2017-10-06T05:16:19.464Z,998.93
2017-10-06T05:17:19.857Z,998.93
2017-10-06T05:18:19.447Z,998.98
2017-10-06T05:19:19.438Z,998.95
2017-10-06T05:20:19.427Z,998.93
2017-10-06T05:21:19.426Z,999.00
2017-10-06T05:22:19.409Z,998.98
2017-10-06T05:23:19.624Z,999.04
2017-10-06T05:24:19.393Z,998.96
2017-10-06T05:25:19.382Z,998.98
2017-10-06T05:26:19.375Z,999.01
2017-10-06T05:27:19.368Z,999.01
2017-10-06T05:28:19.359Z,999.05
2017-10-06T05:29:19.816Z,999.04
2017-10-06T05:30:19.341Z,999.08
2017-10-06T05:31:19.331Z,999.03
2017-10-06T05:32:19.324Z,999.01
2017-10-06T05:33:19.317Z,999.00
2017-10-06T05:34:19.307Z,999.02
2017-10-06T05:35:19.695Z,999.04
2017-10-06T05:36:19.299Z,999.05
2017-10-06T05:37:19.278Z,999.04
2017-10-06T05:38:19.270Z,998.99
2017-10-06T05:39:19.264Z,999.02
2017-10-06T05:40:19.255Z,999.00
2017-10-06T05:41:19.269Z,998.98
2017-10-06T05:42:19.232Z,998.98
2017-10-06T05:43:19.520Z,998.98
2017-10-06T05:44:19.226Z,998.99
2017-10-06T05:45:19.208Z,999.01
2017-10-06T05:46:19.200Z,998.96
2017-10-06T05:47:19.191Z,998.96
2017-10-06T05:48:19.188Z,999.01
2017-10-06T05:49:19.616Z,998.97
2017-10-06T05:50:19.164Z,998.98
2017-10-06T05:51:19.154Z,998.97
2017-10-06T05:52:19.146Z,998.95
2017-10-06T05:53:19.142Z,998.97
2017-10-06T05:54:19.133Z,999.00
2017-10-06T05:55:19.414Z,998.98
2017-10-06T05:56:19.108Z,998.98
2017-10-06T05:57:19.104Z,998.93
2017-10-06T05:58:19.099Z,998.95
2017-10-06T05:59:19.084Z,998.97
2017-10-06T06:00:19.075Z,998.94
2017-10-06T06:01:19.438Z,998.95
2017-10-06T06:02:19.056Z,998.95
2017-10-06T06:03:19.047Z,998.98
2017-10-06T06:04:19.039Z,998.97
2017-10-06T06:05:19.033Z,998.96
2017-10-06T06:06:19.020Z,999.01
2017-10-06T06:07:19.229Z,998.97
2017-10-06T06:08:19.003Z,998.97
2017-10-06T06:09:19.000Z,998.92
2017-10-06T06:10:18.987Z,998.93
2017-10-06T06:11:18.980Z,998.90
2017-10-06T06:12:18.963Z,998.94
2017-10-06T06:13:19.267Z,998.95
2017-10-06T06:14:18.949Z,998.97
2017-10-06T06:15:18.945Z,998.97
2017-10-06T06:16:18.933Z,998.93
2017-10-06T06:17:18.926Z,998.94
2017-10-06T06:18:18.915Z,998.96
2017-10-06T06:19:18.936Z,998.94
2017-10-06T06:20:18.896Z,998.93
2017-10-06T06:21:18.890Z,998.95
2017-10-06T06:22:18.884Z,999.00
2017-10-06T06:23:19.270Z,998.99
2017-10-06T06:24:18.866Z,998.96
2017-10-06T06:25:18.855Z,999.03
2017-10-06T06:26:18.852Z,999.09
2017-10-06T06:27:18.834Z,999.03
2017-10-06T06:28:18.828Z,998.99
2017-10-06T06:29:19.268Z,999.00
2017-10-06T06:30:18.808Z,999.04
2017-10-06T06:31:18.799Z,999.03
2017-10-06T06:32:18.792Z,999.02
2017-10-06T06:33:18.785Z,999.07
2017-10-06T06:34:18.772Z,999.07
2017-10-06T06:35:18.802Z,999.03
2017-10-06T06:36:18.760Z,998.98
2017-10-06T06:37:18.752Z,998.98
2017-10-06T06:38:18.738Z,998.99
2017-10-06T06:39:19.131Z,998.99
2017-10-06T06:40:18.738Z,998.94
2017-10-06T06:41:18.712Z,998.98
2017-10-06T06:42:18.702Z,999.01
2017-10-06T06:43:18.693Z,999.05
2017-10-06T06:44:18.683Z,999.06
2017-10-06T06:45:19.066Z,999.08
2017-10-06T06:46:18.668Z,999.12
2017-10-06T06:47:18.654Z,999.12
2017-10-06T06:48:18.647Z,999.21
2017-10-06T06:49:18.642Z,999.23
2017-10-06T06:50:18.636Z,999.17
2017-10-06T06:51:19.091Z,999.22
2017-10-06T06:52:18.618Z,999.27
2017-10-06T06:53:18.604Z,999.21
2017-10-06T06:54:18.898Z,999.31
2017-10-06T06:55:18.585Z,999.25
2017-10-06T06:56:18.579Z,999.30
2017-10-06T06:57:18.930Z,999.34
2017-10-06T06:58:18.566Z,999.31
2017-10-06T06:59:18.555Z,999.35
2017-10-06T07:00:18.545Z,999.33
2017-10-06T07:01:18.534Z,999.32
2017-10-06T07:02:18.524Z,999.32
2017-10-06T07:03:18.547Z,999.37
2017-10-06T07:04:18.508Z,999.34
2017-10-06T07:05:18.497Z,999.33
2017-10-06T07:06:18.490Z,999.36
2017-10-06T07:07:18.777Z,999.36
2017-10-06T07:08:18.470Z,999.36
2017-10-06T07:09:18.466Z,999.41
2017-10-06T07:10:18.460Z,999.37
2017-10-06T07:11:18.447Z,999.40
2017-10-06T07:12:18.433Z,999.39
2017-10-06T07:13:18.800Z,999.36
2017-10-06T07:14:18.417Z,999.45
2017-10-06T07:15:18.411Z,999.47
2017-10-06T07:16:18.405Z,999.47
2017-10-06T07:17:18.392Z,999.45
2017-10-06T07:18:18.381Z,999.46
2017-10-06T07:19:18.773Z,999.46
2017-10-06T07:20:18.371Z,999.51
2017-10-06T07:21:18.359Z,999.55
2017-10-06T07:22:18.349Z,999.54
2017-10-06T07:23:18.340Z,999.55
2017-10-06T07:24:18.334Z,999.60
2017-10-06T07:25:18.711Z,999.60
2017-10-06T07:26:18.311Z,999.62
2017-10-06T07:27:18.308Z,999.70
2017-10-06T07:28:18.297Z,999.68
2017-10-06T07:29:18.283Z,999.70
2017-10-06T07:30:18.276Z,999.68
2017-10-06T07:31:18.295Z,999.74
2017-10-06T07:32:18.567Z,999.81
2017-10-06T07:33:18.258Z,999.78
2017-10-06T07:34:18.241Z,999.80
2017-10-06T07:35:18.228Z,999.76
2017-10-06T07:36:18.224Z,999.81
2017-10-06T07:37:18.214Z,999.77
2017-10-06T07:38:18.437Z,999.78
2017-10-06T07:39:18.195Z,999.87
2017-10-06T07:40:18.191Z,999.83
2017-10-06T07:41:18.177Z,999.87
2017-10-06T07:42:18.168Z,999.91
2017-10-06T07:43:18.164Z,999.90
2017-10-06T07:44:18.457Z,999.90
2017-10-06T07:45:18.143Z,999.93
2017-10-06T07:46:18.137Z,999.95
2017-10-06T07:47:18.126Z,999.98
2017-10-06T07:48:18.113Z,999.97
2017-10-06T07:49:18.111Z,999.93
2017-10-06T07:50:18.123Z,999.96
2017-10-06T07:51:18.089Z,999.97
2017-10-06T07:52:18.092Z,999.98
2017-10-06T07:53:18.448Z,1000.02
2017-10-06T07:54:18.058Z,999.97
2017-10-06T07:55:18.059Z,1000.02
2017-10-06T07:56:18.047Z,1000.01
2017-10-06T07:57:18.038Z,1000.02
2017-10-06T07:58:18.026Z,1000.04
2017-10-06T07:59:18.420Z,1000.05
2017-10-06T08:00:18.013Z,1000.01
2017-10-06T08:01:18.009Z,1000.04
2017-10-06T08:02:17.988Z,1000.05
2017-10-06T08:03:17.983Z,1000.06
2017-10-06T08:04:17.971Z,1000.02
2017-10-06T08:05:18.189Z,1000.10
2017-10-06T08:06:17.955Z,1000.14
2017-10-06T08:07:17.945Z,1000.05
2017-10-06T08:08:17.940Z,1000.08
2017-10-06T08:09:17.932Z,1000.10
2017-10-06T08:10:17.921Z,1000.09
2017-10-06T08:11:17.943Z,1000.08
2017-10-06T08:12:17.908Z,1000.09
2017-10-06T08:13:18.290Z,1000.09
2017-10-06T08:14:17.880Z,1000.14
2017-10-06T08:15:17.885Z,1000.10
2017-10-06T08:16:17.869Z,1000.09
2017-10-06T08:17:17.857Z,1000.16
2017-10-06T08:18:17.848Z,1000.23
2017-10-06T08:19:18.293Z,1000.26
2017-10-06T08:20:17.837Z,1000.28
2017-10-06T08:21:17.819Z,1000.23
2017-10-06T08:22:17.814Z,1000.21
2017-10-06T08:23:17.803Z,1000.21
2017-10-06T08:24:17.802Z,1000.20
2017-10-06T08:25:18.088Z,1000.21
2017-10-06T08:26:17.776Z,1000.24
2017-10-06T08:27:17.768Z,1000.29
2017-10-06T08:28:17.759Z,1000.34
2017-10-06T08:29:17.757Z,1000.35
2017-10-06T08:30:17.748Z,1000.36
2017-10-06T08:31:18.113Z,1000.37
2017-10-06T08:32:17.726Z,1000.36
2017-10-06T08:33:17.716Z,1000.38
2017-10-06T08:34:17.708Z,1000.38
2017-10-06T08:35:17.695Z,1000.38
2017-10-06T08:36:17.692Z,1000.40
2017-10-06T08:37:18.146Z,1000.37
2017-10-06T08:38:17.672Z,1000.37
2017-10-06T08:39:17.664Z,1000.39
2017-10-06T08:40:17.650Z,1000.34
2017-10-06T08:41:17.644Z,1000.36
2017-10-06T08:42:17.634Z,1000.41
2017-10-06T08:43:18.013Z,1000.38
2017-10-06T08:44:17.617Z,1000.39
2017-10-06T08:45:17.615Z,1000.38
2017-10-06T08:46:17.599Z,1000.40
2017-10-06T08:47:17.594Z,1000.41
2017-10-06T08:48:17.585Z,1000.39
2017-10-06T08:49:17.873Z,1000.41
2017-10-06T08:50:17.559Z,1000.44
2017-10-06T08:51:17.553Z,1000.52
2017-10-06T08:52:17.551Z,1000.53
2017-10-06T08:53:17.546Z,1000.52
2017-10-06T08:54:17.526Z,1000.58
2017-10-06T08:55:17.553Z,1000.58
2017-10-06T08:56:17.511Z,1000.57
2017-10-06T08:57:17.506Z,1000.49
2017-10-06T08:58:17.494Z,1000.51
2017-10-06T08:59:17.863Z,1000.50
2017-10-06T09:00:17.475Z,1000.47
2017-10-06T09:01:17.472Z,1000.50
2017-10-06T09:02:17.455Z,1000.49
2017-10-06T09:03:17.450Z,1000.50
2017-10-06T09:04:17.442Z,1000.51
2017-10-06T09:05:17.867Z,1000.51
2017-10-06T09:06:17.422Z,1000.56
2017-10-06T09:07:17.412Z,1000.59
2017-10-06T09:08:17.405Z,1000.57
2017-10-06T09:09:17.394Z,1000.62
2017-10-06T09:10:17.387Z,1000.68
2017-10-06T09:11:17.720Z,1000.65
2017-10-06T09:12:17.368Z,1000.70
2017-10-06T09:13:17.354Z,1000.67
2017-10-06T09:14:17.350Z,1000.67
2017-10-06T09:15:17.345Z,1000.71
2017-10-06T09:16:17.331Z,1000.73
2017-10-06T09:17:17.545Z,1000.73
2017-10-06T09:18:17.321Z,1000.72
2017-10-06T09:19:17.308Z,1000.73
2017-10-06T09:20:17.298Z,1000.79
2017-10-06T09:21:17.292Z,1000.75
2017-10-06T09:22:17.280Z,1000.83
2017-10-06T09:23:17.658Z,1000.83
2017-10-06T09:24:17.262Z,1000.86
2017-10-06T09:25:17.252Z,1000.83
2017-10-06T09:26:17.243Z,1000.88
2017-10-06T09:27:17.236Z,1000.86
2017-10-06T09:28:17.229Z,1000.88
2017-10-06T09:29:17.509Z,1000.87
2017-10-06T09:30:17.216Z,1000.85
2017-10-06T09:31:17.202Z,1000.85
2017-10-06T09:32:17.190Z,1000.79
2017-10-06T09:33:17.183Z,1000.84
2017-10-06T09:34:17.171Z,1000.85
2017-10-06T09:35:17.484Z,1000.83
2017-10-06T09:36:17.156Z,1000.87
2017-10-06T09:37:17.149Z,1000.88
2017-10-06T09:38:17.142Z,1000.95
2017-10-06T09:39:17.128Z,1000.95
2017-10-06T09:40:17.135Z,1000.95
2017-10-06T09:41:17.420Z,1000.90
2017-10-06T09:42:17.099Z,1000.91
2017-10-06T09:43:17.092Z,1000.92
2017-10-06T09:44:17.088Z,1000.89
2017-10-06T09:45:17.087Z,1000.90
2017-10-06T09:46:17.064Z,1000.94
2017-10-06T09:47:17.376Z,1000.94
2017-10-06T09:48:17.047Z,1000.91
2017-10-06T09:49:17.037Z,1000.92
2017-10-06T09:50:17.028Z,1001.01
2017-10-06T09:51:17.022Z,1001.04
2017-10-06T09:52:17.012Z,1001.03
2017-10-06T09:53:17.366Z,1001.09
2017-10-06T09:54:16.996Z,1001.07
2017-10-06T09:55:16.984Z,1001.03
2017-10-06T09:56:16.973Z,1001.06
2017-10-06T09:57:16.970Z,1001.06
2017-10-06T09:58:16.966Z,1001.03
2017-10-06T09:59:17.000Z,1001.09
2017-10-06T10:00:16.945Z,1001.05
2017-10-06T10:01:16.940Z,1001.10
2017-10-06T10:02:16.925Z,1001.17
2017-10-06T10:03:16.923Z,1001.09
2017-10-06T10:04:17.373Z,1001.08
2017-10-06T10:05:16.896Z,1001.15
2017-10-06T10:06:16.887Z,1001.22
2017-10-06T10:07:16.878Z,1001.13
2017-10-06T10:08:16.871Z,1001.20
2017-10-06T10:09:16.863Z,1001.16
2017-10-06T10:10:17.252Z,1001.15
2017-10-06T10:11:16.838Z,1001.22
2017-10-06T10:12:16.834Z,1001.13
2017-10-06T10:13:16.825Z,1001.16
2017-10-06T10:14:16.816Z,1001.27
2017-10-06T10:15:16.843Z,1001.27
2017-10-06T10:16:16.829Z,1001.35
2017-10-06T10:17:16.789Z,1001.31
2017-10-06T10:18:16.780Z,1001.30
2017-10-06T10:19:17.007Z,1001.33
2017-10-06T10:20:16.763Z,1001.41
2017-10-06T10:21:16.757Z,1001.43
2017-10-06T10:22:16.746Z,1001.41
2017-10-06T10:23:16.733Z,1001.43
2017-10-06T10:24:16.729Z,1001.39
2017-10-06T10:25:17.171Z,1001.47
2017-10-06T10:26:16.708Z,1001.45
2017-10-06T10:27:16.701Z,1001.51
2017-10-06T10:28:16.691Z,1001.45
2017-10-06T10:29:16.686Z,1001.41
2017-10-06T10:30:16.679Z,1001.30
2017-10-06T10:31:17.051Z,1001.45
2017-10-06T10:32:16.664Z,1001.36
2017-10-06T10:33:16.649Z,1001.46
2017-10-06T10:34:16.640Z,1001.47
2017-10-06T10:35:16.637Z,1001.43
2017-10-06T10:36:16.623Z,1001.47
2017-10-06T10:37:16.644Z,1001.43
2017-10-06T10:38:16.603Z,1001.44
2017-10-06T10:39:16.811Z,1001.50
2017-10-06T10:40:16.583Z,1001.49
2017-10-06T10:41:16.576Z,1001.55
2017-10-06T10:42:16.572Z,1001.58
2017-10-06T10:43:16.559Z,1001.54
2017-10-06T10:44:16.555Z,1001.59
2017-10-06T10:45:16.575Z,1001.61
2017-10-06T10:46:16.529Z,1001.60
2017-10-06T10:47:16.520Z,1001.62
2017-10-06T10:48:16.514Z,1001.68
2017-10-06T10:49:16.932Z,1001.62
2017-10-06T10:50:16.496Z,1001.65
2017-10-06T10:51:16.488Z,1001.65
2017-10-06T10:52:16.478Z,1001.68
2017-10-06T10:53:16.471Z,1001.70
2017-10-06T10:54:16.463Z,1001.69
2017-10-06T10:55:16.664Z,1001.67
2017-10-06T10:56:16.445Z,1001.68
2017-10-06T10:57:16.435Z,1001.72
2017-10-06T10:58:16.422Z,1001.70
2017-10-06T10:59:16.418Z,1001.69
2017-10-06T11:00:16.412Z,1001.76
2017-10-06T11:01:16.842Z,1001.72
2017-10-06T11:02:16.392Z,1001.74
2017-10-06T11:03:16.383Z,1001.74
2017-10-06T11:04:16.373Z,1001.74
2017-10-06T11:05:16.362Z,1001.71
2017-10-06T11:06:16.355Z,1001.72
2017-10-06T11:07:16.737Z,1001.74
2017-10-06T11:08:16.333Z,1001.75
2017-10-06T11:09:16.328Z,1001.71
2017-10-06T11:10:16.322Z,1001.74
2017-10-06T11:11:16.306Z,1001.65
2017-10-06T11:12:16.300Z,1001.69
2017-10-06T11:13:16.672Z,1001.69
2017-10-06T11:14:16.282Z,1001.69
2017-10-06T11:15:16.279Z,1001.65
2017-10-06T11:16:16.270Z,1001.67
2017-10-06T11:17:16.253Z,1001.67
2017-10-06T11:18:16.258Z,1001.68
2017-10-06T11:19:16.448Z,1001.73
2017-10-06T11:20:16.230Z,1001.71
2017-10-06T11:21:16.223Z,1001.70
2017-10-06T11:22:16.214Z,1001.76
2017-10-06T11:23:16.208Z,1001.74
2017-10-06T11:24:16.195Z,1001.75
2017-10-06T11:25:16.603Z,1001.80
2017-10-06T11:26:16.177Z,1001.72
2017-10-06T11:27:16.171Z,1001.77
2017-10-06T11:28:16.158Z,1001.77
2017-10-06T11:29:16.146Z,1001.77
2017-10-06T11:30:16.139Z,1001.77
2017-10-06T11:31:16.449Z,1001.72
2017-10-06T11:32:16.132Z,1001.78
2017-10-06T11:33:16.120Z,1001.70
2017-10-06T11:34:16.110Z,1001.78
2017-10-06T11:35:16.096Z,1001.80
2017-10-06T11:36:16.089Z,1001.74
2017-10-06T11:37:16.380Z,1001.66
2017-10-06T11:38:16.067Z,1001.76
2017-10-06T11:39:16.067Z,1001.77
2017-10-06T11:40:16.053Z,1001.76
2017-10-06T11:41:16.047Z,1001.74
2017-10-06T11:42:16.034Z,1001.77
2017-10-06T11:43:16.438Z,1001.77
2017-10-06T11:44:16.014Z,1001.80
2017-10-06T11:45:16.009Z,1001.79
2017-10-06T11:46:16.013Z,1001.81
2017-10-06T11:47:15.993Z,1001.75
2017-10-06T11:48:15.981Z,1001.71
2017-10-06T11:49:16.358Z,1001.76
2017-10-06T11:50:15.969Z,1001.76
2017-10-06T11:51:15.956Z,1001.69
2017-10-06T11:52:15.949Z,1001.76
2017-10-06T11:53:15.937Z,1001.79
2017-10-06T11:54:15.929Z,1001.75
2017-10-06T11:55:16.273Z,1001.81
2017-10-06T11:56:15.915Z,1001.81
2017-10-06T11:57:15.904Z,1001.79
2017-10-06T11:58:15.898Z,1001.84
2017-10-06T11:59:15.888Z,1001.87
2017-10-06T12:00:15.882Z,1001.92
2017-10-06T12:01:16.163Z,1001.93
2017-10-06T12:02:15.861Z,1001.91
2017-10-06T12:03:15.850Z,1001.86
2017-10-06T12:04:15.844Z,1001.88
2017-10-06T12:05:15.835Z,1001.86
2017-10-06T12:06:15.825Z,1001.81
2017-10-06T12:07:16.200Z,1001.92
2017-10-06T12:08:15.810Z,1001.91
2017-10-06T12:09:15.800Z,1001.90
2017-10-06T12:10:15.793Z,1001.95
2017-10-06T12:11:15.780Z,1001.97
2017-10-06T12:12:15.772Z,1001.93
2017-10-06T12:13:16.235Z,1001.93
2017-10-06T12:14:15.754Z,1002.03
2017-10-06T12:15:15.749Z,1001.86
2017-10-06T12:16:15.736Z,1001.99
2017-10-06T12:17:15.725Z,1001.91
2017-10-06T12:18:15.720Z,1001.96
2017-10-06T12:19:15.963Z,1002.00
2017-10-06T12:20:15.702Z,1002.08